RJFN(METAR)
06/25 08:00
METAR RJFN 242300Z 07004KT 040V100 9999 FEW250 24/21 Q1016 RMK
A3001=
戻る
トップページへ戻る
IMOC Co,.Ltd.